createdAt,value
2019-03-29T00:00:46.022Z,5.20
2019-03-29T00:03:12.525Z,5.20
2019-03-29T00:05:46.015Z,5.30
2019-03-29T00:08:15.510Z,5.20
2019-03-29T00:10:41.795Z,5.40
2019-03-29T00:13:14.354Z,5.10
2019-03-29T00:15:42.476Z,4.80
2019-03-29T00:18:10.003Z,4.60
2019-03-29T00:20:37.616Z,4.50
2019-03-29T00:23:13.848Z,4.70
2019-03-29T00:25:46.335Z,4.90
2019-03-29T00:28:23.012Z,4.70
2019-03-29T00:30:52.372Z,4.40
2019-03-29T00:33:32.419Z,4.30
2019-03-29T00:35:59.889Z,4.50
2019-03-29T00:38:29.393Z,4.60
2019-03-29T00:44:24.529Z,5.00
2019-03-29T00:46:53.914Z,5.00
2019-03-29T00:49:23.385Z,4.90
2019-03-29T00:51:50.941Z,4.90
2019-03-29T00:54:35.911Z,4.90
2019-03-29T00:57:08.547Z,4.70
2019-03-29T00:59:43.945Z,4.80
2019-03-29T01:02:19.406Z,4.70
2019-03-29T01:04:55.011Z,4.60
2019-03-29T01:07:22.688Z,4.70
2019-03-29T01:09:57.324Z,4.80
2019-03-29T01:12:26.763Z,4.50
2019-03-29T01:14:59.072Z,4.50
2019-03-29T01:17:45.760Z,4.40
2019-03-29T01:20:15.398Z,4.10
2019-03-29T01:22:53.979Z,4.10
2019-03-29T01:25:26.292Z,4.20
2019-03-29T01:27:52.726Z,4.20
2019-03-29T01:30:22.339Z,4.20
2019-03-29T01:33:08.734Z,4.30
2019-03-29T01:35:37.122Z,4.50
2019-03-29T01:38:06.612Z,4.40
2019-03-29T01:40:45.139Z,4.40
2019-03-29T01:43:14.713Z,4.10
2019-03-29T01:45:47.224Z,4.00
2019-03-29T01:48:24.347Z,3.90
2019-03-29T01:50:56.675Z,3.70
2019-03-29T01:53:41.478Z,3.50
2019-03-29T01:56:08.836Z,3.40
2019-03-29T01:58:41.307Z,3.50
2019-03-29T02:01:18.183Z,3.50
2019-03-29T02:03:47.907Z,3.50
2019-03-29T02:06:20.135Z,3.70
2019-03-29T02:08:46.619Z,3.80
2019-03-29T02:11:18.742Z,3.80
2019-03-29T02:13:56.165Z,3.90
2019-03-29T02:16:25.676Z,4.10
2019-03-29T02:18:54.057Z,3.90
2019-03-29T02:21:22.916Z,3.90
2019-03-29T02:24:30.777Z,3.70
2019-03-29T02:27:04.028Z,3.60
2019-03-29T02:29:41.259Z,3.50
2019-03-29T02:32:15.042Z,3.60
2019-03-29T02:35:11.466Z,3.70
2019-03-29T02:37:44.072Z,3.80
2019-03-29T02:40:51.450Z,3.80
2019-03-29T02:44:04.573Z,3.90
2019-03-29T02:46:33.905Z,3.60
2019-03-29T02:49:06.395Z,3.50
2019-03-29T02:51:38.940Z,3.50
2019-03-29T02:54:23.396Z,3.50
2019-03-29T02:56:49.727Z,3.40
2019-03-29T02:59:30.475Z,3.30
2019-03-29T03:01:57.033Z,3.10
2019-03-29T03:04:26.454Z,2.90
2019-03-29T03:06:55.962Z,2.90
2019-03-29T03:09:22.450Z,3.10
2019-03-29T03:11:51.806Z,3.30
2019-03-29T03:14:33.530Z,3.40
2019-03-29T03:17:03.073Z,3.30
2019-03-29T03:19:35.752Z,3.40
2019-03-29T03:22:29.165Z,3.50
2019-03-29T03:25:01.679Z,3.50
2019-03-29T03:27:35.588Z,3.40
2019-03-29T03:30:09.540Z,3.30
2019-03-29T03:32:37.909Z,3.20
2019-03-29T03:35:07.478Z,3.00
2019-03-29T03:37:41.749Z,3.00
2019-03-29T03:40:11.186Z,3.10
2019-03-29T03:42:39.668Z,3.20
2019-03-29T03:45:13.953Z,3.30
2019-03-29T03:48:06.124Z,3.20
2019-03-29T03:50:56.391Z,3.20
2019-03-29T03:53:25.878Z,3.20
2019-03-29T03:55:55.312Z,3.00
2019-03-29T03:58:24.869Z,3.00
2019-03-29T04:00:54.580Z,2.70
2019-03-29T04:03:24.108Z,2.60
2019-03-29T04:06:02.526Z,2.70
2019-03-29T04:08:31.945Z,2.70
2019-03-29T04:11:01.404Z,2.80
2019-03-29T04:13:44.780Z,3.00
2019-03-29T04:16:11.048Z,3.00
2019-03-29T04:18:52.447Z,2.80
2019-03-29T04:21:23.149Z,2.80
2019-03-29T04:24:19.114Z,2.80
2019-03-29T04:26:58.409Z,2.70
2019-03-29T04:29:25.259Z,2.80
2019-03-29T04:31:58.450Z,2.70
2019-03-29T04:34:36.359Z,2.70
2019-03-29T04:37:08.753Z,2.70
2019-03-29T04:39:38.239Z,2.60
2019-03-29T04:42:17.610Z,2.70
2019-03-29T04:44:47.056Z,2.70
2019-03-29T04:47:16.400Z,2.80
2019-03-29T04:49:42.867Z,2.80
2019-03-29T04:52:15.032Z,2.90
2019-03-29T04:54:44.566Z,3.00
2019-03-29T04:57:13.996Z,2.90
2019-03-29T04:59:43.340Z,2.80
2019-03-29T05:02:27.160Z,2.60
2019-03-29T05:04:55.467Z,2.70
2019-03-29T05:07:36.871Z,2.80
2019-03-29T05:10:22.019Z,2.80
2019-03-29T05:12:51.523Z,2.70
2019-03-29T05:15:31.002Z,2.50
2019-03-29T05:18:00.353Z,2.50
2019-03-29T05:23:55.304Z,2.40
2019-03-29T05:26:29.806Z,2.10
2019-03-29T05:29:02.233Z,2.00
2019-03-29T05:31:38.955Z,2.20
2019-03-29T05:34:20.385Z,2.20
2019-03-29T05:36:46.801Z,2.20
2019-03-29T05:39:26.432Z,2.10
2019-03-29T05:42:05.066Z,2.20
2019-03-29T05:44:34.542Z,2.40
2019-03-29T05:47:03.989Z,2.60
2019-03-29T05:49:49.003Z,2.80
2019-03-29T05:52:21.223Z,3.00
2019-03-29T05:54:53.696Z,3.10
2019-03-29T05:57:26.395Z,2.90
2019-03-29T06:00:06.292Z,3.20
2019-03-29T06:02:36.661Z,3.40
2019-03-29T06:05:06.155Z,3.60
2019-03-29T06:07:38.255Z,3.90
2019-03-29T06:10:04.987Z,4.40
2019-03-29T06:12:33.407Z,4.80
2019-03-29T06:15:03.673Z,4.90
2019-03-29T06:18:01.062Z,5.30
2019-03-29T06:20:30.687Z,5.80
2019-03-29T06:23:11.105Z,6.70
2019-03-29T06:25:48.724Z,7.20
2019-03-29T06:28:18.135Z,8.40
2019-03-29T06:30:47.632Z,9.10
2019-03-29T06:33:23.754Z,9.90
2019-03-29T06:36:05.490Z,10.50
2019-03-29T06:38:34.935Z,11.30
2019-03-29T06:41:04.465Z,13.00
2019-03-29T06:43:36.753Z,13.60
2019-03-29T06:46:03.005Z,13.30
2019-03-29T06:48:50.844Z,13.10
2019-03-29T06:51:27.099Z,12.50
2019-03-29T06:53:56.501Z,13.30
2019-03-29T06:56:28.924Z,14.70
2019-03-29T06:59:14.415Z,15.50
2019-03-29T07:01:47.623Z,14.40
2019-03-29T07:04:18.101Z,14.90
2019-03-29T07:06:57.100Z,14.70
2019-03-29T07:09:26.558Z,14.20
2019-03-29T07:11:55.966Z,14.70
2019-03-29T07:14:23.377Z,15.40
2019-03-29T07:16:50.692Z,13.60
2019-03-29T07:19:23.085Z,13.50
2019-03-29T07:21:52.420Z,13.70
2019-03-29T07:24:21.956Z,13.60
2019-03-29T07:26:51.386Z,15.70
2019-03-29T07:29:17.947Z,18.20
2019-03-29T07:31:47.291Z,18.60
2019-03-29T07:34:14.760Z,18.80
2019-03-29T07:36:44.237Z,19.30
2019-03-29T07:39:16.689Z,18.40
2019-03-29T07:41:43.013Z,18.70
2019-03-29T07:44:31.982Z,18.80
2019-03-29T07:46:58.288Z,18.00
2019-03-29T07:49:27.655Z,17.30
2019-03-29T07:52:12.569Z,16.60
2019-03-29T07:55:06.119Z,18.00
2019-03-29T07:58:07.513Z,17.90
2019-03-29T08:00:30.195Z,17.90
2019-03-29T08:03:00.896Z,17.30
2019-03-29T08:05:29.066Z,16.30
2019-03-29T08:08:00.556Z,17.10
2019-03-29T08:10:33.649Z,18.10
2019-03-29T08:13:03.237Z,19.80
2019-03-29T08:15:29.726Z,19.90
2019-03-29T08:18:21.131Z,20.40
2019-03-29T08:20:47.547Z,21.20
2019-03-29T08:23:19.669Z,17.70
2019-03-29T08:25:53.249Z,16.20
2019-03-29T08:28:25.865Z,16.50
2019-03-29T08:30:58.458Z,16.10
2019-03-29T08:33:30.892Z,17.80
2019-03-29T08:36:00.333Z,17.40
2019-03-29T08:38:32.715Z,17.50
2019-03-29T08:41:04.919Z,16.80
2019-03-29T08:43:58.238Z,17.50
2019-03-29T08:46:31.549Z,18.40
2019-03-29T08:49:08.829Z,18.30
2019-03-29T08:51:41.321Z,18.40
2019-03-29T08:54:09.857Z,19.30
2019-03-29T08:56:37.303Z,18.50
2019-03-29T08:59:06.300Z,20.10
2019-03-29T09:01:51.163Z,19.30
2019-03-29T09:04:27.206Z,19.40
2019-03-29T09:06:55.535Z,18.00
2019-03-29T09:09:41.987Z,19.00
2019-03-29T09:12:14.657Z,17.80
2019-03-29T09:14:58.970Z,18.20
2019-03-29T09:17:28.531Z,19.50
2019-03-29T09:19:56.959Z,18.90
2019-03-29T09:22:23.236Z,18.50
2019-03-29T09:24:49.612Z,18.60
2019-03-29T09:27:50.484Z,17.90
2019-03-29T09:30:24.227Z,18.40
2019-03-29T09:32:58.707Z,20.70
2019-03-29T09:35:31.109Z,22.20
2019-03-29T09:38:01.852Z,24.40
2019-03-29T09:40:31.246Z,24.60
2019-03-29T09:43:08.588Z,22.60
2019-03-29T09:45:37.178Z,22.40
2019-03-29T09:48:03.492Z,19.60
2019-03-29T09:50:33.616Z,18.80
2019-03-29T09:53:01.482Z,18.20
2019-03-29T09:55:28.036Z,18.20
2019-03-29T09:57:54.394Z,18.60
2019-03-29T10:00:23.362Z,18.70
2019-03-29T10:02:48.846Z,18.40
2019-03-29T10:05:15.254Z,17.30
2019-03-29T10:07:41.614Z,17.50
2019-03-29T10:10:07.947Z,17.00
2019-03-29T10:12:43.453Z,17.00
2019-03-29T10:15:02.850Z,17.10
2019-03-29T10:17:35.225Z,17.60
2019-03-29T10:20:02.165Z,17.50
2019-03-29T10:22:28.527Z,16.70
2019-03-29T10:24:57.915Z,15.90
2019-03-29T10:27:24.229Z,15.60
2019-03-29T10:29:50.557Z,15.40
2019-03-29T10:32:16.954Z,15.50
2019-03-29T10:34:43.251Z,15.30
2019-03-29T10:37:09.624Z,15.70
2019-03-29T10:39:36.077Z,15.90
2019-03-29T10:42:02.430Z,16.00
2019-03-29T10:44:28.746Z,15.60
2019-03-29T10:46:55.200Z,15.90
2019-03-29T10:49:21.687Z,16.00
2019-03-29T10:51:50.971Z,15.80
2019-03-29T10:54:18.278Z,15.80
2019-03-29T10:56:44.658Z,16.10
2019-03-29T10:59:26.756Z,16.30
2019-03-29T11:01:42.175Z,16.00
2019-03-29T11:04:08.579Z,16.30
2019-03-29T11:06:37.927Z,16.30
2019-03-29T11:09:06.715Z,16.40
2019-03-29T11:11:35.078Z,16.40
2019-03-29T11:14:01.803Z,15.80
2019-03-29T11:16:28.163Z,16.20
2019-03-29T11:18:54.408Z,16.60
2019-03-29T11:21:26.531Z,16.60
2019-03-29T11:23:52.966Z,17.20
2019-03-29T11:26:19.318Z,17.60
2019-03-29T11:28:48.636Z,17.20
2019-03-29T11:31:15.058Z,17.00
2019-03-29T11:33:41.443Z,16.90
2019-03-29T11:36:07.821Z,17.20
2019-03-29T11:38:40.158Z,17.10
2019-03-29T11:41:06.432Z,17.00
2019-03-29T11:43:34.941Z,17.40
2019-03-29T11:46:01.298Z,17.30
2019-03-29T11:48:29.549Z,17.30
2019-03-29T11:50:55.731Z,17.20
2019-03-29T11:53:22.000Z,17.00
2019-03-29T11:55:48.600Z,17.20
2019-03-29T11:58:14.953Z,17.10
2019-03-29T12:00:41.359Z,17.20
2019-03-29T12:03:09.343Z,17.30
2019-03-29T12:05:36.434Z,17.00
2019-03-29T12:08:03.437Z,17.20
2019-03-29T12:10:29.741Z,17.20
2019-03-29T12:12:56.091Z,17.30
2019-03-29T12:15:22.528Z,17.30
2019-03-29T12:17:48.822Z,17.20
2019-03-29T12:20:25.143Z,17.30
2019-03-29T12:22:51.867Z,17.60
2019-03-29T12:25:18.508Z,17.80
2019-03-29T12:27:44.887Z,18.00
2019-03-29T12:30:30.467Z,17.20
2019-03-29T12:32:45.298Z,17.20
2019-03-29T12:35:11.587Z,16.90
2019-03-29T12:37:37.972Z,17.00
2019-03-29T12:40:05.258Z,17.00
2019-03-29T12:42:31.746Z,17.30
2019-03-29T12:44:58.006Z,17.50
2019-03-29T12:47:24.412Z,17.60
2019-03-29T12:49:50.803Z,18.00
2019-03-29T12:52:17.134Z,18.00
2019-03-29T12:54:43.494Z,18.00
2019-03-29T12:57:09.913Z,17.70
2019-03-29T12:59:36.194Z,17.80
2019-03-29T13:02:02.565Z,17.80
2019-03-29T13:04:28.828Z,17.50
2019-03-29T13:06:55.124Z,17.30
2019-03-29T13:09:21.475Z,17.30
2019-03-29T13:11:47.786Z,17.30
2019-03-29T13:14:14.125Z,17.70
2019-03-29T13:16:40.478Z,17.60
2019-03-29T13:19:06.802Z,17.80
2019-03-29T13:21:33.436Z,17.80
2019-03-29T13:23:59.782Z,17.60
2019-03-29T13:26:26.058Z,17.60
2019-03-29T13:28:52.340Z,17.50
2019-03-29T13:31:18.668Z,17.30
2019-03-29T13:33:44.914Z,17.30
2019-03-29T13:36:11.459Z,17.70
2019-03-29T13:38:37.846Z,17.80
2019-03-29T13:41:06.892Z,18.00
2019-03-29T13:43:32.307Z,17.90
2019-03-29T13:45:59.754Z,17.80
2019-03-29T13:48:27.347Z,17.90
2019-03-29T13:50:54.642Z,17.80
2019-03-29T13:53:21.100Z,17.80
2019-03-29T13:55:47.376Z,17.80
2019-03-29T13:58:13.772Z,17.70
2019-03-29T14:00:40.296Z,17.70
2019-03-29T14:03:06.546Z,17.60
2019-03-29T14:05:32.899Z,17.50
2019-03-29T14:08:01.755Z,17.60
2019-03-29T14:10:28.669Z,17.50
2019-03-29T14:12:54.953Z,17.40
2019-03-29T14:15:21.238Z,17.60
2019-03-29T14:17:47.575Z,17.60
2019-03-29T14:20:17.782Z,17.60
2019-03-29T14:22:44.087Z,17.70
2019-03-29T14:25:10.362Z,17.90
2019-03-29T14:27:36.628Z,18.00
2019-03-29T14:30:05.493Z,18.10
2019-03-29T14:32:32.047Z,17.90
2019-03-29T14:34:58.436Z,17.80
2019-03-29T14:37:24.740Z,17.90
2019-03-29T14:39:51.203Z,17.90
2019-03-29T14:42:17.564Z,18.10
2019-03-29T14:44:52.882Z,18.20
2019-03-29T14:47:19.089Z,18.00
2019-03-29T14:49:45.361Z,17.90
2019-03-29T14:52:11.676Z,18.00
2019-03-29T14:54:38.097Z,18.00
2019-03-29T14:57:05.679Z,17.90
2019-03-29T14:59:32.065Z,18.00
2019-03-29T15:02:08.223Z,18.10
2019-03-29T15:04:34.798Z,17.90
2019-03-29T15:07:06.708Z,17.90
2019-03-29T15:09:33.692Z,18.00
2019-03-29T15:12:00.253Z,18.10
2019-03-29T15:14:27.994Z,18.30
2019-03-29T15:17:01.659Z,18.30
2019-03-29T15:19:28.611Z,18.30
2019-03-29T15:21:55.843Z,17.90
2019-03-29T15:24:22.611Z,18.10
2019-03-29T15:26:49.610Z,18.10
2019-03-29T15:29:24.273Z,18.20
2019-03-29T15:31:59.569Z,18.40
2019-03-29T15:34:26.518Z,18.20
2019-03-29T15:36:52.841Z,18.30
2019-03-29T15:39:21.130Z,18.30
2019-03-29T15:41:50.468Z,18.30
2019-03-29T15:44:27.230Z,18.30
2019-03-29T15:46:53.733Z,18.30
2019-03-29T15:49:20.133Z,18.30
2019-03-29T15:51:49.616Z,18.30
2019-03-29T15:54:16.072Z,18.20
2019-03-29T15:56:46.545Z,18.30
2019-03-29T15:59:13.433Z,18.20
2019-03-29T16:01:49.128Z,18.20
2019-03-29T16:04:26.772Z,18.30
2019-03-29T16:07:02.636Z,18.20
2019-03-29T16:09:29.134Z,18.10
2019-03-29T16:11:55.784Z,18.20
2019-03-29T16:14:22.254Z,18.20
2019-03-29T16:16:57.179Z,18.10
2019-03-29T16:19:23.547Z,18.10
2019-03-29T16:21:56.433Z,18.00
2019-03-29T16:24:23.466Z,17.90
2019-03-29T16:26:51.148Z,17.80
2019-03-29T16:29:18.218Z,17.80
2019-03-29T16:31:47.872Z,17.80
2019-03-29T16:34:14.976Z,17.80
2019-03-29T16:36:41.807Z,17.80
2019-03-29T16:39:10.302Z,17.70
2019-03-29T16:41:37.821Z,17.70
2019-03-29T16:44:04.882Z,17.70
2019-03-29T16:46:32.833Z,17.70
2019-03-29T16:49:00.133Z,17.70
2019-03-29T16:51:34.696Z,17.60
2019-03-29T16:54:05.666Z,17.60
2019-03-29T16:56:38.024Z,17.60
2019-03-29T16:59:05.277Z,17.60
2019-03-29T17:01:31.690Z,17.50
2019-03-29T17:04:04.148Z,17.50
2019-03-29T17:06:33.616Z,17.50
2019-03-29T17:09:00.166Z,17.40
2019-03-29T17:11:32.618Z,17.40
2019-03-29T17:13:59.017Z,17.30
2019-03-29T17:16:30.646Z,17.20
2019-03-29T17:18:53.450Z,17.10
2019-03-29T17:21:21.941Z,17.00
2019-03-29T17:23:52.706Z,17.00
2019-03-29T17:26:19.487Z,16.90
2019-03-29T17:28:46.460Z,16.90
2019-03-29T17:31:16.773Z,16.90
2019-03-29T17:33:43.111Z,16.70
2019-03-29T17:36:12.144Z,16.70
2019-03-29T17:38:38.923Z,16.50
2019-03-29T17:41:07.921Z,16.50
2019-03-29T17:43:34.672Z,16.50
2019-03-29T17:46:15.217Z,16.40
2019-03-29T17:48:31.279Z,16.30
2019-03-29T17:51:03.623Z,16.20
2019-03-29T17:53:29.843Z,16.10
2019-03-29T17:55:57.214Z,15.90
2019-03-29T17:58:23.511Z,15.80
2019-03-29T18:00:54.774Z,15.60
2019-03-29T18:03:25.903Z,15.40
2019-03-29T18:06:00.703Z,15.20
2019-03-29T18:08:28.690Z,15.10
2019-03-29T18:10:58.375Z,15.00
2019-03-29T18:13:27.507Z,15.00
2019-03-29T18:15:57.202Z,15.10
2019-03-29T18:18:23.659Z,15.10
2019-03-29T18:20:50.091Z,15.10
2019-03-29T18:23:16.447Z,14.90
2019-03-29T18:25:42.743Z,14.50
2019-03-29T18:28:10.048Z,14.20
2019-03-29T18:30:38.174Z,14.20
2019-03-29T18:33:05.131Z,14.10
2019-03-29T18:35:31.822Z,14.10
2019-03-29T18:37:58.191Z,13.80
2019-03-29T18:40:30.630Z,13.70
2019-03-29T18:42:57.276Z,13.40
2019-03-29T18:45:24.437Z,13.40
2019-03-29T18:47:52.645Z,13.30
2019-03-29T18:50:19.101Z,13.30
2019-03-29T18:52:45.479Z,13.20
2019-03-29T18:55:12.243Z,13.20
2019-03-29T18:57:38.550Z,13.10
2019-03-29T19:00:06.472Z,13.10
2019-03-29T19:02:45.035Z,13.20
2019-03-29T19:05:23.105Z,13.30
2019-03-29T19:07:50.476Z,13.30
2019-03-29T19:10:26.759Z,13.30
2019-03-29T19:12:55.375Z,13.20
2019-03-29T19:15:21.674Z,13.20
2019-03-29T19:17:47.904Z,13.10
2019-03-29T19:20:26.736Z,13.10
2019-03-29T19:22:43.319Z,13.10
2019-03-29T19:25:09.641Z,13.10
2019-03-29T19:27:35.884Z,13.00
2019-03-29T19:30:09.290Z,12.90
2019-03-29T19:32:41.646Z,12.80
2019-03-29T19:35:11.133Z,12.80
2019-03-29T19:37:37.431Z,12.60
2019-03-29T19:40:04.982Z,12.50
2019-03-29T19:42:31.790Z,12.30
2019-03-29T19:44:58.076Z,12.30
2019-03-29T19:47:24.441Z,12.40
2019-03-29T19:49:55.306Z,12.10
2019-03-29T19:52:21.001Z,11.90
2019-03-29T19:54:47.385Z,11.80
2019-03-29T19:57:16.695Z,11.70
2019-03-29T19:59:48.180Z,11.70
2019-03-29T20:02:14.412Z,11.70
2019-03-29T20:04:40.719Z,11.80
2019-03-29T20:07:07.193Z,11.80
2019-03-29T20:09:33.477Z,11.80
2019-03-29T20:11:59.791Z,11.80
2019-03-29T20:14:26.666Z,12.00
2019-03-29T20:16:55.228Z,12.00
2019-03-29T20:19:21.059Z,12.10
2019-03-29T20:21:47.436Z,12.00
2019-03-29T20:24:13.798Z,11.90
2019-03-29T20:26:40.080Z,11.90
2019-03-29T20:29:09.381Z,11.80
2019-03-29T20:31:35.688Z,11.80
2019-03-29T20:34:01.982Z,11.70
2019-03-29T20:36:28.282Z,11.70
2019-03-29T20:38:54.591Z,11.80
2019-03-29T20:41:20.863Z,11.80
2019-03-29T20:43:47.441Z,11.80
2019-03-29T20:46:16.981Z,11.80
2019-03-29T20:48:43.380Z,11.60
2019-03-29T20:51:09.891Z,11.20
2019-03-29T20:53:36.341Z,11.00
2019-03-29T20:56:02.694Z,10.90
2019-03-29T20:58:29.090Z,10.90
2019-03-29T21:00:55.401Z,10.90
2019-03-29T21:03:21.663Z,10.70
2019-03-29T21:05:47.931Z,10.60
2019-03-29T21:08:14.526Z,10.60
2019-03-29T21:10:54.551Z,10.70
2019-03-29T21:13:09.003Z,10.60
2019-03-29T21:15:35.361Z,10.70
2019-03-29T21:18:01.703Z,10.60
2019-03-29T21:20:28.155Z,10.50
2019-03-29T21:22:54.485Z,10.10
2019-03-29T21:25:24.972Z,9.90
2019-03-29T21:27:51.303Z,9.90
2019-03-29T21:30:17.681Z,10.00
2019-03-29T21:32:45.914Z,10.00
2019-03-29T21:35:12.383Z,10.00
2019-03-29T21:37:38.790Z,10.00
2019-03-29T21:40:05.945Z,10.10
2019-03-29T21:42:32.239Z,10.10
2019-03-29T21:44:58.543Z,10.00
2019-03-29T21:47:24.834Z,10.00
2019-03-29T21:49:51.537Z,10.10
2019-03-29T21:52:17.806Z,10.00
2019-03-29T21:54:44.109Z,10.10
2019-03-29T21:57:10.369Z,9.70
2019-03-29T21:59:39.325Z,9.40
2019-03-29T22:02:05.619Z,9.00
2019-03-29T22:04:31.911Z,8.80
2019-03-29T22:07:01.386Z,8.70
2019-03-29T22:09:36.864Z,8.60
2019-03-29T22:11:55.810Z,8.60
2019-03-29T22:14:22.106Z,8.70
2019-03-29T22:16:48.368Z,8.70
2019-03-29T22:19:15.646Z,8.50
2019-03-29T22:21:42.055Z,8.40
2019-03-29T22:24:11.318Z,8.20
2019-03-29T22:26:37.654Z,8.10
2019-03-29T22:29:03.965Z,8.10
2019-03-29T22:31:30.343Z,8.30
2019-03-29T22:33:56.734Z,8.20
2019-03-29T22:36:23.016Z,8.10
2019-03-29T22:38:49.290Z,8.00
2019-03-29T22:41:15.639Z,8.00
2019-03-29T22:43:41.954Z,8.00
2019-03-29T22:46:08.214Z,7.90
2019-03-29T22:48:34.740Z,7.80
2019-03-29T22:51:01.049Z,7.80
2019-03-29T22:53:33.146Z,7.80
2019-03-29T22:55:59.478Z,7.80
2019-03-29T22:58:29.270Z,7.70
2019-03-29T23:00:55.777Z,7.70
2019-03-29T23:03:22.328Z,7.70
2019-03-29T23:05:48.574Z,7.70
2019-03-29T23:08:15.993Z,7.70
2019-03-29T23:10:42.500Z,7.80
2019-03-29T23:13:09.003Z,7.80
2019-03-29T23:15:35.282Z,7.80
2019-03-29T23:18:01.702Z,7.70
2019-03-29T23:20:28.210Z,7.50
2019-03-29T23:22:54.557Z,7.40
2019-03-29T23:25:20.956Z,7.30
2019-03-29T23:27:47.254Z,7.20
2019-03-29T23:30:13.616Z,7.10
2019-03-29T23:32:48.784Z,7.20
2019-03-29T23:35:15.186Z,7.00
2019-03-29T23:37:41.508Z,7.00
2019-03-29T23:40:07.796Z,6.90
2019-03-29T23:42:34.078Z,6.90
2019-03-29T23:45:00.342Z,7.00
2019-03-29T23:47:29.609Z,7.00
2019-03-29T23:49:55.999Z,7.00
2019-03-29T23:52:22.375Z,7.00
2019-03-29T23:54:48.688Z,7.00
2019-03-29T23:57:15.010Z,7.10
2019-03-29T23:59:41.308Z,7.10
